createdAt,value
2022-12-16T00:01:58.664Z,41.13
2022-12-16T00:07:00.387Z,41.50
2022-12-16T00:12:02.190Z,41.20
2022-12-16T00:17:03.826Z,39.38
2022-12-16T00:22:06.629Z,41.27
2022-12-16T00:27:08.360Z,40.13
2022-12-16T00:32:10.659Z,36.03
2022-12-16T00:37:13.445Z,33.07
2022-12-16T00:42:15.119Z,33.77
2022-12-16T00:47:16.762Z,33.17
2022-12-16T00:52:18.410Z,33.60
2022-12-16T00:57:20.060Z,32.93
2022-12-16T01:02:21.863Z,33.43
2022-12-16T01:07:23.624Z,36.70
2022-12-16T01:12:25.310Z,35.20
2022-12-16T01:17:27.177Z,35.80
2022-12-16T01:22:31.401Z,36.73
2022-12-16T01:27:33.080Z,34.30
2022-12-16T01:32:34.760Z,37.93
2022-12-16T01:37:36.416Z,35.53
2022-12-16T01:42:38.072Z,36.00
2022-12-16T01:47:39.745Z,35.13
2022-12-16T01:52:46.568Z,35.10
2022-12-16T01:58:02.494Z,38.03
2022-12-16T02:03:05.236Z,33.80
2022-12-16T02:08:09.851Z,34.90
2022-12-16T02:13:17.224Z,31.60
2022-12-16T02:18:40.668Z,34.27
2022-12-16T02:24:06.168Z,34.67
2022-12-16T02:29:32.430Z,34.50
2022-12-16T02:34:46.168Z,34.40
2022-12-16T02:39:56.931Z,34.93
2022-12-16T02:45:07.396Z,35.03
2022-12-16T02:50:33.472Z,38.93
2022-12-16T02:55:52.980Z,34.33
2022-12-16T03:01:13.229Z,37.07
2022-12-16T03:06:19.499Z,38.47
2022-12-16T03:11:21.349Z,38.78
2022-12-16T03:16:28.961Z,37.73
2022-12-16T03:21:38.318Z,36.37
2022-12-16T03:27:02.453Z,41.53
2022-12-16T03:32:12.684Z,40.57
2022-12-16T03:37:14.761Z,40.93
2022-12-16T03:42:17.261Z,41.63
2022-12-16T03:47:23.597Z,44.97
2022-12-16T03:52:25.795Z,43.65
2022-12-16T03:57:27.424Z,44.83
2022-12-16T04:02:29.263Z,45.87
2022-12-16T04:07:31.214Z,43.90
2022-12-16T04:12:51.457Z,48.38
2022-12-16T04:18:11.860Z,46.47
2022-12-16T04:23:32.901Z,45.73
2022-12-16T04:28:34.870Z,45.07
2022-12-16T04:33:55.576Z,43.22
2022-12-16T04:39:17.471Z,41.70
2022-12-16T04:44:37.358Z,44.90
2022-12-16T04:49:57.973Z,43.28
2022-12-16T04:55:18.124Z,42.10
2022-12-16T05:00:38.348Z,40.13
2022-12-16T05:05:58.588Z,39.87
2022-12-16T05:11:18.852Z,41.10
2022-12-16T05:16:39.110Z,42.77
2022-12-16T05:21:59.342Z,40.13
2022-12-16T05:27:19.502Z,39.15
2022-12-16T05:32:39.910Z,39.22
2022-12-16T05:38:00.084Z,38.27
2022-12-16T05:43:20.342Z,36.47
2022-12-16T05:48:46.032Z,32.60
2022-12-16T05:54:07.634Z,35.27
2022-12-16T05:59:27.713Z,27.07
2022-12-16T06:04:47.990Z,28.07
2022-12-16T06:10:08.325Z,30.70
2022-12-16T06:15:29.637Z,29.90
2022-12-16T06:20:49.902Z,32.60
2022-12-16T06:26:10.118Z,30.27
2022-12-16T06:31:30.498Z,26.23
2022-12-16T06:36:50.708Z,28.00
2022-12-16T06:42:10.864Z,27.53
2022-12-16T06:47:30.813Z,28.47
2022-12-16T06:52:51.128Z,27.67
2022-12-16T06:58:18.046Z,28.00
2022-12-16T07:03:38.513Z,26.10
2022-12-16T07:08:58.984Z,27.93
2022-12-16T07:14:19.082Z,29.97
2022-12-16T07:19:39.241Z,30.00
2022-12-16T07:24:59.467Z,28.47
2022-12-16T07:30:19.840Z,29.85
2022-12-16T07:35:40.043Z,29.47
2022-12-16T07:41:00.431Z,28.30
2022-12-16T07:46:20.674Z,29.88
2022-12-16T07:51:41.054Z,30.00
2022-12-16T07:57:01.393Z,28.02
2022-12-16T08:02:21.577Z,32.45
2022-12-16T08:07:41.535Z,31.33
2022-12-16T08:13:01.685Z,32.20
2022-12-16T08:18:21.858Z,33.50
2022-12-16T08:23:42.181Z,33.65
2022-12-16T08:29:27.239Z,35.28
2022-12-16T08:34:42.580Z,35.17
2022-12-16T08:40:33.643Z,36.45
2022-12-16T08:45:43.294Z,34.17
2022-12-16T08:51:03.712Z,34.17
2022-12-16T08:56:23.857Z,38.57
2022-12-16T09:01:44.190Z,38.77
2022-12-16T09:07:04.700Z,43.33
2022-12-16T09:12:25.039Z,40.03
2022-12-16T09:17:45.201Z,37.90
2022-12-16T09:23:05.461Z,34.93
2022-12-16T09:28:25.434Z,37.05
2022-12-16T09:33:45.818Z,36.17
2022-12-16T09:39:05.575Z,37.40
2022-12-16T09:44:50.072Z,39.40
2022-12-16T09:50:12.412Z,36.33
2022-12-16T09:55:59.905Z,36.67
2022-12-16T10:01:20.742Z,34.67
2022-12-16T10:06:59.335Z,34.13
2022-12-16T10:12:42.724Z,36.08
2022-12-16T10:18:04.711Z,34.42
2022-12-16T10:23:56.681Z,35.05
2022-12-16T10:29:31.139Z,34.92
2022-12-16T10:34:54.992Z,36.03
2022-12-16T10:40:18.270Z,33.93
2022-12-16T10:45:44.103Z,35.63
2022-12-16T10:51:04.467Z,36.67
2022-12-16T10:56:44.942Z,38.25
2022-12-16T11:02:21.700Z,36.30
2022-12-16T11:07:46.820Z,39.25
2022-12-16T11:13:07.098Z,38.42
2022-12-16T11:18:35.908Z,39.23
2022-12-16T11:23:55.913Z,38.53
2022-12-16T11:29:28.092Z,38.67
2022-12-16T11:34:48.410Z,39.40
2022-12-16T11:40:08.530Z,38.60
2022-12-16T11:45:35.653Z,39.60
2022-12-16T11:51:01.731Z,36.27
2022-12-16T11:56:23.637Z,39.07
2022-12-16T12:01:51.538Z,37.63
2022-12-16T12:07:45.335Z,37.57
2022-12-16T12:13:46.771Z,39.03
2022-12-16T12:19:27.373Z,39.43
2022-12-16T12:25:09.285Z,38.57
2022-12-16T12:30:33.696Z,39.70
2022-12-16T12:36:09.228Z,39.88
2022-12-16T12:42:05.525Z,40.13
2022-12-16T12:47:29.361Z,41.07
2022-12-16T12:53:28.146Z,39.35
2022-12-16T12:58:53.172Z,39.33
2022-12-16T13:04:23.500Z,40.43
2022-12-16T13:09:53.859Z,39.90
2022-12-16T13:15:51.199Z,39.97
2022-12-16T13:21:15.453Z,41.97
2022-12-16T13:26:38.272Z,42.50
2022-12-16T13:32:20.218Z,40.13
2022-12-16T13:37:44.392Z,40.53
2022-12-16T13:43:04.422Z,40.10
2022-12-16T13:48:46.379Z,40.20
2022-12-16T13:54:10.553Z,43.03
2022-12-16T13:59:39.057Z,41.80
2022-12-16T14:05:03.905Z,43.03
2022-12-16T14:10:24.663Z,42.80
2022-12-16T14:15:52.513Z,42.30
2022-12-16T14:21:21.154Z,39.73
2022-12-16T14:26:42.415Z,41.50
2022-12-16T14:32:03.223Z,42.83
2022-12-16T14:37:38.295Z,43.20
2022-12-16T14:43:00.004Z,41.63
2022-12-16T14:48:20.338Z,41.67
2022-12-16T14:53:42.990Z,42.60
2022-12-16T14:59:19.972Z,45.23
2022-12-16T15:04:40.689Z,43.00
2022-12-16T15:10:08.861Z,43.13
2022-12-16T15:15:36.650Z,46.37
2022-12-16T15:21:11.589Z,42.40
2022-12-16T15:26:46.088Z,42.87
2022-12-16T15:32:06.437Z,42.10
2022-12-16T15:37:41.700Z,42.40
2022-12-16T15:43:02.087Z,42.57
2022-12-16T15:48:31.913Z,44.83
2022-12-16T15:53:56.542Z,42.00
2022-12-16T15:59:32.869Z,42.13
2022-12-16T16:04:53.407Z,40.83
2022-12-16T16:10:26.987Z,41.33
2022-12-16T16:15:47.382Z,44.10
2022-12-16T16:21:08.665Z,42.27
2022-12-16T16:26:34.573Z,44.75
2022-12-16T16:31:59.411Z,41.23
2022-12-16T16:37:32.596Z,40.37
2022-12-16T16:42:54.012Z,41.30
2022-12-16T16:48:31.241Z,42.60
2022-12-16T16:53:51.599Z,42.10
2022-12-16T16:59:11.839Z,41.28
2022-12-16T17:04:32.312Z,41.77
2022-12-16T17:09:52.384Z,38.03
2022-12-16T17:15:12.709Z,40.03
2022-12-16T17:20:34.857Z,40.03
2022-12-16T17:25:55.267Z,41.85
2022-12-16T17:31:17.196Z,41.83
2022-12-16T17:36:38.038Z,41.55
2022-12-16T17:41:58.298Z,42.40
2022-12-16T17:47:18.493Z,46.50
2022-12-16T17:52:38.908Z,44.80
2022-12-16T17:57:59.286Z,47.50
2022-12-16T18:03:19.606Z,41.87
2022-12-16T18:08:39.717Z,42.67
2022-12-16T18:14:00.556Z,46.40
2022-12-16T18:19:40.671Z,43.63
2022-12-16T18:25:01.422Z,44.13
2022-12-16T18:30:22.533Z,42.40
2022-12-16T18:35:42.807Z,42.53
2022-12-16T18:41:02.911Z,43.47
2022-12-16T18:46:23.344Z,39.23
2022-12-16T18:51:43.694Z,50.80
2022-12-16T18:57:03.955Z,43.20
2022-12-16T19:02:24.432Z,46.63
2022-12-16T19:07:44.744Z,43.10
2022-12-16T19:13:04.902Z,43.50
2022-12-16T19:18:25.155Z,41.10
2022-12-16T19:23:45.070Z,41.10
2022-12-16T19:29:05.384Z,39.90
2022-12-16T19:34:26.613Z,42.37
2022-12-16T19:39:46.848Z,40.43
2022-12-16T19:45:07.139Z,42.93
2022-12-16T19:50:28.039Z,40.33
2022-12-16T19:55:48.261Z,41.47
2022-12-16T20:01:10.225Z,40.67
2022-12-16T20:06:30.897Z,41.97
2022-12-16T20:11:51.050Z,43.63
2022-12-16T20:17:11.837Z,41.60
2022-12-16T20:22:32.058Z,43.70
2022-12-16T20:27:52.367Z,39.80
2022-12-16T20:33:13.607Z,42.00
2022-12-16T20:38:33.886Z,42.10
2022-12-16T20:43:54.155Z,41.37
2022-12-16T20:49:16.578Z,41.43
2022-12-16T20:54:36.679Z,44.73
2022-12-16T20:59:56.991Z,41.87
2022-12-16T21:05:17.270Z,44.07
2022-12-16T21:10:37.899Z,40.70
2022-12-16T21:15:58.072Z,40.58
2022-12-16T21:21:18.481Z,40.80
2022-12-16T21:26:38.786Z,42.22
2022-12-16T21:31:59.060Z,40.20
2022-12-16T21:37:19.219Z,42.22
2022-12-16T21:42:43.687Z,42.17
2022-12-16T21:48:04.415Z,44.43
2022-12-16T21:53:24.610Z,40.70
2022-12-16T21:58:44.921Z,41.70
2022-12-16T22:04:05.157Z,41.45
2022-12-16T22:09:25.345Z,39.27
2022-12-16T22:14:45.503Z,39.90
2022-12-16T22:20:05.819Z,38.53
2022-12-16T22:25:26.033Z,38.20
2022-12-16T22:30:46.549Z,40.37
2022-12-16T22:36:06.803Z,38.20
2022-12-16T22:41:27.688Z,38.40
2022-12-16T22:46:48.333Z,39.47
2022-12-16T22:52:08.630Z,40.65
2022-12-16T22:57:29.427Z,42.37
2022-12-16T23:02:49.751Z,41.60
2022-12-16T23:08:09.872Z,42.03
2022-12-16T23:13:31.203Z,38.93
2022-12-16T23:18:51.275Z,42.70
2022-12-16T23:24:12.108Z,38.70
2022-12-16T23:29:32.347Z,39.88
2022-12-16T23:34:52.739Z,40.87
2022-12-16T23:40:12.709Z,38.80
2022-12-16T23:45:32.928Z,44.17
2022-12-16T23:50:53.131Z,39.87
2022-12-16T23:56:18.832Z,37.20
